Time;durP1;ratioP1;P1;durP2;ratioP2;P2;SDS_P1;SDS_P2;PMS_P1;PMS_P2;Temp;Humidity;BMP_temperature;BMP_pressure;BME280_temperature;BME280_humidity;BME280_pressure;Samples;Min_cycle;Max_cycle;Signal;HPM_P1;HPM_P2
2022/09/14 00:00:50;;;;;;;3.30;2.60;;;24.90;64.50;25.90;99952.00;;;;5047815;28;20654;-43
2022/09/14 00:03:16;;;;;;;2.70;2.50;;;24.80;64.50;25.90;99944.00;;;;5048358;28;20185;-42
2022/09/14 00:05:42;;;;;;;2.70;2.50;;;24.80;64.40;25.90;99940.00;;;;5048075;28;20180;-43
2022/09/14 00:08:08;;;;;;;2.80;2.60;;;24.80;64.40;25.90;99933.00;;;;5047867;28;20174;-43
2022/09/14 00:10:43;;;;;;;3.13;2.63;;;24.80;64.40;25.90;99936.00;;;;5047378;28;20281;-42
2022/09/14 00:13:10;;;;;;;2.78;2.58;;;24.80;64.40;25.90;99924.00;;;;5048017;28;20215;-43
2022/09/14 00:15:37;;;;;;;3.00;2.80;;;24.80;64.40;25.90;99925.00;;;;5048051;28;20265;-44
2022/09/14 00:18:03;;;;;;;2.65;2.45;;;24.80;64.40;25.90;99916.00;;;;5048040;28;20174;-43
2022/09/14 00:20:29;;;;;;;2.60;2.40;;;24.80;64.40;25.90;99916.00;;;;5049742;28;20166;-43
2022/09/14 00:22:55;;;;;;;2.90;2.70;;;24.80;64.40;25.90;99922.00;;;;5057243;28;20246;-43
2022/09/14 00:25:21;;;;;;;2.75;2.55;;;24.80;64.40;25.90;99904.00;;;;5060309;28;20206;-42
2022/09/14 00:27:46;;;;;;;2.95;2.72;;;24.80;64.50;25.90;99894.00;;;;5052491;28;20190;-42
2022/09/14 00:30:12;;;;;;;2.78;2.58;;;24.80;64.50;25.80;99893.00;;;;5052136;28;20547;-43
2022/09/14 00:32:38;;;;;;;3.00;2.70;;;24.80;64.40;25.80;99883.00;;;;5051983;28;20487;-42
2022/09/14 00:35:04;;;;;;;3.03;2.83;;;24.70;64.30;25.80;99882.00;;;;5051680;28;20179;-42
2022/09/14 00:37:30;;;;;;;3.10;2.80;;;24.80;64.40;25.80;99879.00;;;;5051332;28;20174;-42
2022/09/14 00:39:56;;;;;;;3.15;2.83;;;24.70;64.50;25.80;99867.00;;;;5051973;28;20190;-42
2022/09/14 00:42:21;;;;;;;3.30;3.00;;;24.70;64.40;25.80;99864.00;;;;5052349;28;20245;-44
2022/09/14 00:44:47;;;;;;;3.42;3.13;;;24.70;64.50;25.80;99862.00;;;;5052177;28;20205;-44
2022/09/14 00:47:13;;;;;;;2.90;2.70;;;24.70;64.50;25.80;99847.00;;;;5051754;28;20360;-43
2022/09/14 00:49:40;;;;;;;2.97;2.75;;;24.70;64.50;25.80;99847.00;;;;5050104;28;20181;-43
2022/09/14 00:52:37;;;;;;;3.10;2.90;;;24.70;64.50;25.80;99846.00;;;;5050195;28;20301;-44
2022/09/14 00:55:10;;;;;;;5.07;2.90;;;24.70;64.50;25.70;99844.00;;;;5049009;28;20671;-42
2022/09/14 00:57:48;;;;;;;3.13;2.83;;;24.70;64.70;25.70;99840.00;;;;5034967;28;20318;-43
2022/09/14 01:00:17;;;;;;;3.13;2.92;;;24.70;64.90;25.70;99841.00;;;;5050441;28;20169;-42
2022/09/14 01:02:43;;;;;;;3.25;2.90;;;24.70;64.80;25.70;99837.00;;;;5050110;28;20194;-43
2022/09/14 01:05:09;;;;;;;3.00;2.80;;;24.70;64.80;25.70;99840.00;;;;5051131;28;20175;-44
2022/09/14 01:07:56;;;;;;;3.20;2.90;;;24.60;64.70;25.70;99836.00;;;;5049561;28;20190;-44
2022/09/14 01:10:39;;;;;;;2.90;2.70;;;24.60;64.90;25.70;99840.00;;;;5052164;28;20190;-43
2022/09/14 01:13:21;;;;;;;2.88;2.63;;;24.60;64.90;25.70;99843.00;;;;5051210;28;20662;-41
2022/09/14 01:16:06;;;;;;;3.10;2.80;;;24.60;64.90;25.70;99835.00;;;;5050931;28;20200;-42
2022/09/14 01:18:43;;;;;;;2.78;2.58;;;24.60;64.90;25.70;99839.00;;;;5049332;28;20706;-43
2022/09/14 01:21:43;;;;;;;2.78;2.58;;;24.60;64.80;25.60;99843.00;;;;5049661;28;20186;-43
2022/09/14 01:24:39;;;;;;;3.05;2.75;;;24.60;64.90;25.60;99836.00;;;;5042081;28;20194;-42
2022/09/14 01:27:34;;;;;;;2.83;2.53;;;24.60;65.00;25.60;99832.00;;;;5033024;28;20189;-43
2022/09/14 01:30:21;;;;;;;2.65;2.45;;;24.60;65.80;25.60;99835.00;;;;5049542;28;20155;-43
2022/09/14 01:32:58;;;;;;;2.72;2.53;;;24.60;64.90;25.60;99848.00;;;;5032142;28;20541;-43
2022/09/14 01:35:27;;;;;;;2.90;2.65;;;24.60;64.90;25.60;99854.00;;;;5050020;28;20255;-42
2022/09/14 01:38:26;;;;;;;2.60;2.40;;;24.50;64.70;25.60;99860.00;;;;5048656;28;20548;-43
2022/09/14 01:40:52;;;;;;;3.08;2.78;;;24.60;64.70;25.60;99850.00;;;;5049018;28;20174;-42
2022/09/14 01:43:39;;;;;;;2.50;2.30;;;24.60;64.70;25.50;99850.00;;;;5048997;28;20228;-43
2022/09/14 01:46:39;;;;;;;2.85;2.50;;;24.60;64.70;25.60;99841.00;;;;5050612;28;20793;-42
2022/09/14 01:49:22;;;;;;;2.70;2.40;;;24.50;64.60;25.50;99842.00;;;;5030253;28;20733;-42
2022/09/14 01:51:57;;;;;;;2.55;2.30;;;24.60;64.70;25.50;99842.00;;;;5049378;28;20240;-43
2022/09/14 01:54:32;;;;;;;2.45;2.25;;;24.50;64.60;25.50;99849.00;;;;5048922;28;20159;-43
2022/09/14 01:57:13;;;;;;;2.70;2.50;;;24.50;64.70;25.50;99857.00;;;;5048515;28;20150;-42
2022/09/14 01:59:45;;;;;;;2.50;2.30;;;24.50;64.60;25.30;99857.00;;;;5050676;28;20155;-43
2022/09/14 02:02:36;;;;;;;2.85;2.40;;;24.50;65.40;25.50;99856.00;;;;5048956;28;20190;-42
2022/09/14 02:05:27;;;;;;;2.70;2.20;;;24.50;64.60;25.50;99859.00;;;;5048836;28;20170;-42
2022/09/14 02:07:53;;;;;;;2.35;2.15;;;24.50;64.50;25.50;99859.00;;;;5049669;28;20313;-42
2022/09/14 02:10:18;;;;;;;2.60;2.40;;;24.50;64.40;25.50;99847.00;;;;5048961;28;20266;-42
2022/09/14 02:12:44;;;;;;;2.50;2.30;;;24.50;64.40;25.50;99846.00;;;;5048641;28;20288;-44
2022/09/14 02:15:11;;;;;;;2.60;2.40;;;24.50;64.40;25.50;99854.00;;;;5050070;28;20166;-42
2022/09/14 02:17:37;;;;;;;2.50;2.30;;;24.50;64.30;25.50;99845.00;;;;5049389;28;20631;-43
2022/09/14 02:20:06;;;;;;;2.30;2.10;;;24.50;64.20;25.50;99852.00;;;;5049730;28;20543;-42
2022/09/14 02:22:32;;;;;;;2.30;2.10;;;24.40;64.10;25.50;99851.00;;;;5049406;28;20198;-42
2022/09/14 02:24:57;;;;;;;2.40;2.20;;;24.50;64.20;25.40;99850.00;;;;5048398;28;20465;-42
2022/09/14 02:27:23;;;;;;;2.33;2.13;;;24.50;64.20;25.40;99850.00;;;;5048143;28;20460;-42
2022/09/14 02:29:49;;;;;;;2.40;2.20;;;24.40;64.10;25.40;99825.00;;;;5049498;28;20198;-43
2022/09/14 02:32:31;;;;;;;2.70;2.25;;;24.40;64.10;25.40;99833.00;;;;5048082;28;20229;-43
2022/09/14 02:35:06;;;;;;;2.30;2.10;;;24.40;64.10;25.40;99823.00;;;;5048530;28;20518;-42
2022/09/14 02:38:11;;;;;;;2.72;2.53;;;24.40;64.20;25.40;99825.00;;;;5047571;28;20161;-42
2022/09/14 02:41:14;;;;;;;2.58;2.38;;;24.40;64.10;25.40;99824.00;;;;5047755;28;20163;-42
2022/09/14 02:44:24;;;;;;;2.50;2.30;;;24.40;64.10;25.30;99826.00;;;;5040055;28;20189;-42
2022/09/14 02:47:14;;;;;;;2.63;2.30;;;24.40;64.10;25.30;99807.00;;;;5025821;28;20194;-42
2022/09/14 02:50:00;;;;;;;2.10;2.00;;;24.40;64.10;25.30;99804.00;;;;5047764;28;20316;-43
2022/09/14 02:52:34;;;;;;;2.17;2.07;;;24.40;64.10;25.30;99805.00;;;;5047564;28;20264;-43
2022/09/14 02:55:10;;;;;;;2.42;2.22;;;24.40;64.10;25.30;99810.00;;;;5049160;28;20583;-44
2022/09/14 02:57:58;;;;;;;2.60;2.40;;;24.40;64.10;25.30;99792.00;;;;5047527;28;20197;-42
2022/09/14 03:00:24;;;;;;;2.25;2.10;;;24.40;64.10;25.30;99790.00;;;;5049682;28;20186;-43
2022/09/14 03:02:50;;;;;;;2.75;2.40;;;24.40;64.10;25.30;99786.00;;;;5048767;28;20194;-43
2022/09/14 03:05:16;;;;;;;2.88;2.33;;;24.40;64.10;25.30;99789.00;;;;5049004;28;20629;-43
2022/09/14 03:07:42;;;;;;;6.25;2.20;;;24.40;64.10;25.30;99790.00;;;;5048481;28;20170;-42
2022/09/14 03:10:08;;;;;;;2.50;2.30;;;24.30;64.00;25.30;99723.00;;;;5052886;28;20201;-42
2022/09/14 03:12:33;;;;;;;2.37;2.20;;;24.40;64.10;25.30;99786.00;;;;5049169;28;20252;-42
2022/09/14 03:14:59;;;;;;;2.15;2.05;;;24.30;64.10;25.30;99782.00;;;;5046847;28;20198;-42
2022/09/14 03:17:25;;;;;;;2.50;2.30;;;24.30;64.00;25.30;99780.00;;;;5045969;28;20691;-43
2022/09/14 03:19:50;;;;;;;2.47;2.28;;;24.30;64.10;25.30;99779.00;;;;5045889;28;20170;-43
2022/09/14 03:22:16;;;;;;;2.58;2.38;;;24.30;64.20;25.30;99778.00;;;;5046112;28;20198;-43
2022/09/14 03:24:42;;;;;;;2.40;2.20;;;24.30;64.20;25.20;99770.00;;;;5045930;28;20174;-42
2022/09/14 03:27:07;;;;;;;2.50;2.30;;;24.30;64.10;25.20;99773.00;;;;5045899;28;20655;-42
2022/09/14 03:29:34;;;;;;;2.83;2.15;;;24.30;64.10;25.20;99772.00;;;;5045578;28;20181;-43
2022/09/14 03:32:00;;;;;;;2.10;2.00;;;24.30;64.10;25.20;99767.00;;;;5045613;28;20214;-43
2022/09/14 03:34:25;;;;;;;2.20;2.10;;;24.30;64.90;25.20;99761.00;;;;5049258;28;20185;-41
2022/09/14 03:36:51;;;;;;;2.42;2.22;;;24.30;64.10;25.20;99757.00;;;;5061726;28;20178;-41
2022/09/14 03:39:17;;;;;;;2.20;2.00;;;24.30;64.10;25.20;99756.00;;;;5061581;28;20623;-42
2022/09/14 03:41:43;;;;;;;2.92;2.25;;;24.30;64.10;25.20;99759.00;;;;5059182;28;20210;-43
2022/09/14 03:44:09;;;;;;;5.50;2.35;;;24.30;64.20;25.20;99753.00;;;;5048982;28;20170;-44
2022/09/14 03:46:35;;;;;;;2.40;2.20;;;24.30;64.20;25.20;99753.00;;;;5046877;28;20185;-44
2022/09/14 03:49:00;;;;;;;2.35;2.00;;;24.30;64.20;25.20;99748.00;;;;5047842;28;20170;-42
2022/09/14 03:51:26;;;;;;;5.30;2.10;;;24.20;64.10;25.20;99753.00;;;;5048289;28;20425;-41
2022/09/14 03:53:52;;;;;;;3.67;2.30;;;24.20;64.10;25.20;99754.00;;;;5048068;28;20296;-42
2022/09/14 03:56:20;;;;;;;5.75;2.20;;;24.20;64.10;25.20;99748.00;;;;5047210;28;20259;-44
2022/09/14 03:58:46;;;;;;;5.50;2.30;;;24.20;64.00;25.10;99748.00;;;;5047914;28;20229;-44
2022/09/14 04:01:16;;;;;;;2.90;2.20;;;24.20;64.10;25.10;99745.00;;;;5048360;28;20543;-42
2022/09/14 04:03:42;;;;;;;6.45;2.22;;;24.20;64.10;24.90;99741.00;;;;5048542;28;20416;-43
2022/09/14 04:06:08;;;;;;;5.22;2.25;;;24.20;64.10;25.10;99732.00;;;;5050154;28;20335;-42
2022/09/14 04:08:36;;;;;;;3.77;2.10;;;24.20;64.20;25.10;99745.00;;;;5063542;28;20185;-42
2022/09/14 04:11:32;;;;;;;4.60;2.17;;;24.20;64.30;25.10;99746.00;;;;5087715;28;20289;-44
2022/09/14 04:14:01;;;;;;;4.30;2.30;;;24.20;64.30;25.10;99744.00;;;;5072012;28;20181;-41
2022/09/14 04:16:27;;;;;;;6.85;2.20;;;24.10;64.20;25.10;99754.00;;;;5088296;28;20172;-42
2022/09/14 04:18:53;;;;;;;4.10;2.10;;;24.10;64.10;25.10;99748.00;;;;5087747;28;20173;-42
2022/09/14 04:21:21;;;;;;;5.63;2.40;;;24.20;64.30;25.10;99742.00;;;;5088282;28;20669;-42
2022/09/14 04:23:47;;;;;;;5.93;2.23;;;24.10;64.10;25.10;99744.00;;;;5088535;28;20177;-43
2022/09/14 04:26:16;;;;;;;4.47;2.20;;;24.10;64.10;25.10;99740.00;;;;5088391;28;20669;-43
2022/09/14 04:28:42;;;;;;;3.97;2.20;;;24.10;64.10;25.10;99740.00;;;;5086182;28;20565;-44
2022/09/14 04:31:08;;;;;;;3.73;2.30;;;24.10;64.10;25.10;99738.00;;;;5088137;28;20204;-42
2022/09/14 04:33:34;;;;;;;8.30;2.37;;;24.10;64.20;25.10;99734.00;;;;5088303;28;20644;-43
2022/09/14 04:36:06;;;;;;;4.60;2.10;;;24.10;64.10;25.00;99733.00;;;;5088513;28;20173;-42
2022/09/14 04:38:32;;;;;;;5.20;2.33;;;24.10;64.10;25.00;99738.00;;;;5088077;28;20165;-42
2022/09/14 04:40:58;;;;;;;9.37;2.40;;;24.10;64.10;25.00;99738.00;;;;5072270;28;20202;-42
2022/09/14 04:43:25;;;;;;;6.33;2.77;;;24.10;64.10;25.00;99736.00;;;;5055173;28;20193;-41
2022/09/14 04:45:51;;;;;;;5.10;2.30;;;24.10;64.10;25.00;99738.00;;;;5051406;28;20201;-42
2022/09/14 04:48:16;;;;;;;7.20;2.37;;;24.10;64.20;25.00;99736.00;;;;5053729;28;20588;-43
2022/09/14 04:50:42;;;;;;;6.50;2.50;;;24.10;64.10;25.00;99733.00;;;;5048359;28;20170;-41
2022/09/14 04:53:09;;;;;;;7.40;2.80;;;24.10;64.10;25.00;99726.00;;;;5048044;28;20166;-42
2022/09/14 04:55:35;;;;;;;6.13;2.37;;;24.10;64.10;25.00;99734.00;;;;5047289;28;20548;-43
2022/09/14 04:58:01;;;;;;;9.53;2.43;;;24.10;64.10;25.00;99723.00;;;;5047617;28;20167;-43
2022/09/14 05:00:26;;;;;;;8.27;2.40;;;24.00;64.10;25.00;99727.00;;;;5047834;28;20178;-43
2022/09/14 05:02:52;;;;;;;7.23;2.50;;;24.10;64.20;25.00;99720.00;;;;5047774;28;20206;-43
2022/09/14 05:05:18;;;;;;;8.77;2.60;;;24.10;64.10;25.00;99719.00;;;;5047884;28;20174;-43
2022/09/14 05:07:43;;;;;;;5.60;2.30;;;24.10;64.10;25.00;99713.00;;;;5051786;28;20189;-43
2022/09/14 05:10:10;;;;;;;7.20;2.20;;;24.00;64.00;25.00;99717.00;;;;5051760;28;20550;-42
2022/09/14 05:12:35;;;;;;;4.97;2.27;;;24.00;64.00;25.00;99719.00;;;;5052201;28;20206;-43
2022/09/14 05:15:01;;;;;;;6.73;2.30;;;24.00;64.00;24.90;99715.00;;;;5051472;28;20228;-42
2022/09/14 05:17:27;;;;;;;3.77;2.10;;;24.00;64.00;24.90;99714.00;;;;5051047;28;20600;-42
2022/09/14 05:19:52;;;;;;;4.57;2.40;;;24.00;64.00;24.90;99719.00;;;;5051829;28;20217;-42
2022/09/14 05:22:21;;;;;;;4.60;2.33;;;24.00;64.10;24.90;99715.00;;;;5051629;28;20251;-42
2022/09/14 05:24:47;;;;;;;4.07;2.23;;;24.00;64.00;24.90;99712.00;;;;5051079;28;20170;-42
2022/09/14 05:27:12;;;;;;;3.40;2.13;;;24.00;64.00;24.90;99706.00;;;;5051118;28;20725;-42
2022/09/14 05:29:39;;;;;;;5.80;2.33;;;24.00;64.00;24.90;99709.00;;;;5051171;28;20170;-43
2022/09/14 05:32:05;;;;;;;2.70;2.13;;;24.00;64.00;24.90;99713.00;;;;5049607;28;20202;-43
2022/09/14 05:34:31;;;;;;;8.80;2.57;;;24.00;64.10;24.90;99708.00;;;;5051029;28;20213;-41
2022/09/14 05:36:56;;;;;;;6.90;2.20;;;24.00;64.00;24.90;99708.00;;;;5050358;28;20170;-43
2022/09/14 05:39:23;;;;;;;4.13;2.10;;;23.90;64.00;24.90;99695.00;;;;5051353;28;20170;-43
2022/09/14 05:41:50;;;;;;;6.68;2.25;;;24.00;64.00;24.90;99707.00;;;;5049519;28;20328;-42
2022/09/14 05:44:16;;;;;;;8.73;2.50;;;23.90;64.10;24.80;99696.00;;;;5050875;28;20196;-41
2022/09/14 05:46:41;;;;;;;4.13;2.30;;;24.00;64.10;24.80;99705.00;;;;5050300;28;20643;-42
2022/09/14 05:49:07;;;;;;;5.17;2.50;;;23.90;64.10;24.80;99702.00;;;;5050779;28;20185;-42
2022/09/14 05:51:33;;;;;;;3.73;2.33;;;23.90;64.10;24.80;99697.00;;;;5050862;28;20229;-43
2022/09/14 05:53:59;;;;;;;5.67;2.30;;;23.90;64.10;24.80;99694.00;;;;5051126;28;20469;-42
2022/09/14 05:56:27;;;;;;;6.73;2.30;;;23.90;64.10;24.80;99694.00;;;;5050471;28;20182;-42
2022/09/14 05:58:53;;;;;;;2.33;1.90;;;23.90;64.10;24.80;99702.00;;;;5051296;28;20175;-42
2022/09/14 06:01:25;;;;;;;4.17;2.00;;;23.90;64.10;24.80;99701.00;;;;5050658;28;20209;-43
2022/09/14 06:03:56;;;;;;;4.07;2.30;;;23.90;64.20;24.80;99700.00;;;;5051490;28;20190;-42
2022/09/14 06:06:22;;;;;;;5.93;2.33;;;23.90;64.20;24.80;99707.00;;;;5050531;28;20174;-43
2022/09/14 06:08:52;;;;;;;5.40;2.30;;;23.90;64.20;24.80;99696.00;;;;5050418;28;20201;-43
2022/09/14 06:11:29;;;;;;;4.63;2.20;;;23.90;64.20;24.70;99703.00;;;;5050677;28;20217;-42
2022/09/14 06:13:55;;;;;;;6.87;2.17;;;23.90;64.10;24.70;99703.00;;;;5050687;28;20154;-43
2022/09/14 06:16:22;;;;;;;4.03;2.03;;;23.80;63.90;24.70;99704.00;;;;5049875;28;20294;-44
2022/09/14 06:18:48;;;;;;;5.83;2.20;;;23.80;64.00;24.70;99705.00;;;;5049296;28;20312;-42
2022/09/14 06:21:16;;;;;;;4.90;2.00;;;23.90;64.10;24.70;99704.00;;;;5051044;28;20237;-42
2022/09/14 06:23:42;;;;;;;3.93;2.00;;;23.80;64.10;24.70;99700.00;;;;5050922;28;20194;-43
2022/09/14 06:26:08;;;;;;;4.77;2.20;;;23.80;64.10;24.70;99707.00;;;;5050021;28;20673;-43
2022/09/14 06:28:34;;;;;;;5.77;2.30;;;23.80;63.90;24.70;99713.00;;;;5048218;28;20178;-42
2022/09/14 06:31:02;;;;;;;4.53;2.03;;;23.80;63.90;24.70;99719.00;;;;5050421;28;20550;-42
2022/09/14 06:33:27;;;;;;;8.17;2.40;;;23.80;63.90;24.70;99713.00;;;;5050523;28;20187;-43
2022/09/14 06:36:01;;;;;;;6.67;2.30;;;23.80;63.90;24.70;99711.00;;;;5049761;28;20166;-42
2022/09/14 06:38:27;;;;;;;6.27;2.10;;;23.80;63.90;24.70;99708.00;;;;5050237;28;20605;-43
2022/09/14 06:41:03;;;;;;;6.27;2.17;;;23.80;64.00;24.70;99714.00;;;;5049717;28;20439;-44
2022/09/14 06:43:31;;;;;;;6.50;2.20;;;23.80;63.90;24.70;99716.00;;;;5048792;28;20177;-43
2022/09/14 06:46:17;;;;;;;4.57;1.93;;;23.80;63.90;24.70;99714.00;;;;5049529;28;20236;-43
2022/09/14 06:48:46;;;;;;;5.53;2.17;;;23.80;63.90;24.70;99713.00;;;;5057053;28;20419;-43
2022/09/14 06:51:15;;;;;;;4.97;2.20;;;23.80;63.90;24.60;99722.00;;;;5064234;28;20198;-42
2022/09/14 06:53:41;;;;;;;4.63;2.10;;;23.80;63.90;24.60;99722.00;;;;5053146;28;20188;-44
2022/09/14 06:56:07;;;;;;;2.63;2.00;;;23.80;64.10;24.60;99719.00;;;;5049193;28;20167;-41
2022/09/14 06:58:33;;;;;;;7.53;2.40;;;23.70;63.90;24.60;99722.00;;;;5049509;28;20179;-43
2022/09/14 07:01:08;;;;;;;5.73;2.33;;;23.70;63.90;24.60;99715.00;;;;5050934;28;20198;-43
2022/09/14 07:03:35;;;;;;;7.50;2.27;;;23.70;64.10;24.60;99716.00;;;;5050764;28;20177;-42
2022/09/14 07:06:10;;;;;;;7.07;2.03;;;23.80;64.20;24.60;99718.00;;;;5050124;28;20573;-42
2022/09/14 07:08:36;;;;;;;7.13;2.10;;;23.70;64.30;24.60;99714.00;;;;5048201;28;20173;-43
2022/09/14 07:11:02;;;;;;;7.83;2.53;;;23.70;64.40;24.60;99723.00;;;;5049139;28;20217;-42
2022/09/14 07:13:28;;;;;;;4.80;2.20;;;23.70;64.60;24.60;99720.00;;;;5054386;28;20178;-42
2022/09/14 07:15:54;;;;;;;5.90;2.30;;;23.70;64.60;24.60;99725.00;;;;5053592;28;20182;-44
2022/09/14 07:18:30;;;;;;;6.20;2.10;;;23.70;64.60;24.60;99723.00;;;;5053504;28;20185;-41
2022/09/14 07:21:10;;;;;;;8.43;2.47;;;23.70;64.60;24.60;99724.00;;;;4938598;28;20196;-41
2022/09/14 07:23:40;;;;;;;6.07;2.30;;;23.70;64.60;24.60;99723.00;;;;5091369;28;20242;-41
2022/09/14 07:26:13;;;;;;;6.33;2.30;;;23.70;64.60;24.60;99713.00;;;;5085611;28;20260;-42
2022/09/14 07:28:40;;;;;;;11.53;2.57;;;23.70;64.70;24.60;99717.00;;;;5068137;28;20297;-42
2022/09/14 07:31:16;;;;;;;9.13;2.63;;;23.70;64.60;24.60;99727.00;;;;5068396;28;20610;-43
2022/09/14 07:33:42;;;;;;;7.60;2.63;;;23.60;64.50;24.60;99719.00;;;;5068502;28;20188;-43
2022/09/14 07:36:09;;;;;;;6.77;2.60;;;23.70;64.60;24.50;99715.00;;;;5068424;28;20642;-43
2022/09/14 07:38:35;;;;;;;5.70;2.20;;;23.60;64.50;24.50;99714.00;;;;5067139;28;20169;-43
2022/09/14 07:41:01;;;;;;;3.30;2.30;;;23.60;64.50;24.50;99708.00;;;;5080400;28;20185;-42
2022/09/14 07:43:28;;;;;;;6.50;2.60;;;23.60;64.50;24.50;99707.00;;;;5077325;28;20521;-42
2022/09/14 07:45:53;;;;;;;3.57;2.17;;;23.60;64.50;24.50;99708.00;;;;5065188;28;20596;-43
2022/09/14 07:48:19;;;;;;;4.60;2.53;;;23.60;64.50;24.50;99699.00;;;;5048214;28;20178;-43
2022/09/14 07:50:46;;;;;;;5.73;2.40;;;23.60;64.60;24.50;99706.00;;;;5047968;28;20257;-42
2022/09/14 07:53:12;;;;;;;4.27;2.10;;;23.60;64.60;24.50;99712.00;;;;5048703;28;20162;-42
2022/09/14 07:55:39;;;;;;;4.23;2.23;;;23.60;64.70;24.50;99705.00;;;;5056639;28;20640;-42
2022/09/14 07:58:06;;;;;;;4.07;2.20;;;23.60;64.60;24.50;99708.00;;;;5084950;28;20237;-42
2022/09/14 08:00:32;;;;;;;5.73;2.30;;;23.60;64.50;24.50;99699.00;;;;5088437;28;20156;-42
2022/09/14 08:02:58;;;;;;;4.47;2.13;;;23.60;64.50;24.50;99702.00;;;;5062068;28;20198;-42
2022/09/14 08:05:24;;;;;;;4.00;2.30;;;23.60;64.60;24.50;99701.00;;;;5048087;28;20677;-42
2022/09/14 08:07:54;;;;;;;4.73;2.30;;;23.60;64.50;24.50;99688.00;;;;5047023;28;20259;-42
2022/09/14 08:10:20;;;;;;;4.80;2.37;;;23.60;64.50;24.50;99703.00;;;;5046767;28;20201;-43
2022/09/14 08:12:52;;;;;;;5.90;1.90;;;23.50;64.40;24.50;99692.00;;;;5047612;28;20378;-43
2022/09/14 08:15:20;;;;;;;2.63;2.10;;;23.60;64.60;24.40;99693.00;;;;5057110;28;20332;-42
2022/09/14 08:17:46;;;;;;;3.57;2.00;;;23.60;64.50;24.40;99685.00;;;;5067588;28;20186;-43
2022/09/14 08:20:11;;;;;;;2.90;2.00;;;23.50;65.30;24.40;99684.00;;;;5068239;28;20169;-42
2022/09/14 08:22:38;;;;;;;3.20;2.20;;;23.50;64.40;24.40;99687.00;;;;4948053;28;20204;-43
2022/09/14 08:25:04;;;;;;;4.97;2.10;;;23.50;64.40;24.40;99684.00;;;;5068047;28;20227;-42
2022/09/14 08:27:30;;;;;;;4.97;2.00;;;23.50;64.50;24.40;99684.00;;;;5067697;28;20234;-43
2022/09/14 08:29:55;;;;;;;2.93;2.00;;;23.50;64.50;24.40;99686.00;;;;5069899;28;20178;-42
2022/09/14 08:32:21;;;;;;;3.90;2.10;;;23.50;64.40;24.40;99686.00;;;;5077691;28;20209;-43
2022/09/14 08:34:48;;;;;;;3.93;1.80;;;23.50;65.30;24.40;99683.00;;;;5057038;28;20590;-43
2022/09/14 08:37:14;;;;;;;2.43;1.97;;;23.50;64.40;24.40;99685.00;;;;5048470;28;20611;-43
2022/09/14 08:39:39;;;;;;;2.53;1.90;;;23.50;64.40;24.40;99677.00;;;;5048210;28;20261;-42
2022/09/14 08:42:10;;;;;;;3.57;1.90;;;23.50;64.40;24.40;99682.00;;;;5050448;28;20190;-42
2022/09/14 08:44:50;;;;;;;2.70;1.90;;;23.50;64.40;24.40;99679.00;;;;5050435;28;20609;-42
2022/09/14 08:47:22;;;;;;;2.20;1.83;;;23.40;64.30;24.40;99686.00;;;;5051738;28;20162;-45
2022/09/14 08:50:17;;;;;;;2.97;2.00;;;23.50;64.50;24.40;99661.00;;;;5050125;28;20806;-42
2022/09/14 08:52:47;;;;;;;1.93;1.80;;;23.40;64.30;24.30;99698.00;;;;5089375;28;20212;-42
2022/09/14 08:55:40;;;;;;;3.07;1.80;;;23.50;64.40;24.30;99684.00;;;;5073520;28;20653;-43
2022/09/14 08:58:05;;;;;;;2.17;1.70;;;23.40;64.30;24.30;99686.00;;;;5090935;28;20225;-43
2022/09/14 09:00:53;;;;;;;2.93;1.90;;;23.40;64.30;24.30;99691.00;;;;5091691;28;20170;-42
2022/09/14 09:04:19;;;;;;;2.83;2.00;;;23.40;64.30;24.30;99689.00;;;;5090038;28;20161;-43
2022/09/14 09:07:16;;;;;;;2.97;1.90;;;23.40;64.40;24.30;99687.00;;;;5057044;28;20239;-41
2022/09/14 09:09:47;;;;;;;3.37;2.07;;;23.40;64.30;24.20;99694.00;;;;5089777;28;20323;-44
2022/09/14 09:12:19;;;;;;;1.97;1.80;;;23.40;64.40;24.20;99698.00;;;;5091546;28;20213;-43
2022/09/14 09:15:13;;;;;;;1.73;1.63;;;23.40;64.40;24.20;99696.00;;;;5074133;28;20181;-43
2022/09/14 09:17:42;;;;;;;2.07;1.87;;;23.40;64.40;24.20;99705.00;;;;5075163;28;20256;-42
2022/09/14 09:20:26;;;;;;;1.87;1.70;;;23.40;64.40;24.20;99712.00;;;;5073778;28;20626;-42
2022/09/14 09:23:11;;;;;;;2.47;1.80;;;23.30;64.40;24.20;99717.00;;;;5089126;28;20693;-42
2022/09/14 09:26:03;;;;;;;1.80;1.70;;;23.40;64.50;24.20;99704.00;;;;5075819;28;20482;-43
2022/09/14 09:28:29;;;;;;;2.53;1.90;;;23.30;64.40;24.20;99708.00;;;;5075746;28;20173;-42
2022/09/14 09:31:03;;;;;;;1.87;1.60;;;23.30;64.40;24.20;99716.00;;;;5073619;28;20238;-43
2022/09/14 09:33:29;;;;;;;2.57;1.77;;;23.30;64.40;24.20;99705.00;;;;4941802;28;22391;-41
2022/09/14 09:35:55;;;;;;;1.93;1.73;;;23.30;64.40;24.20;99717.00;;;;5061429;28;20191;-42
2022/09/14 09:38:26;;;;;;;2.63;1.90;;;23.30;64.30;24.20;99709.00;;;;5071441;28;20233;-42
2022/09/14 09:40:59;;;;;;;2.13;1.50;;;23.40;64.40;24.20;99713.00;;;;5071592;28;20169;-41
2022/09/14 09:43:24;;;;;;;1.90;1.70;;;23.30;64.30;24.20;99703.00;;;;5069531;28;20154;-43
2022/09/14 09:46:05;;;;;;;1.90;1.80;;;23.30;64.30;24.20;99697.00;;;;5069637;28;20180;-41
2022/09/14 09:48:42;;;;;;;1.63;1.50;;;23.30;64.40;24.20;99695.00;;;;5055912;28;20174;-43
2022/09/14 09:51:25;;;;;;;2.87;1.70;;;23.30;64.30;24.20;99693.00;;;;5070583;28;20351;-41
2022/09/14 09:54:22;;;;;;;2.27;1.73;;;23.30;64.30;24.20;99693.00;;;;5068972;28;20212;-42
2022/09/14 09:57:05;;;;;;;2.00;1.53;;;23.30;64.30;24.10;99699.00;;;;5070699;28;20233;-41
2022/09/14 09:59:39;;;;;;;1.60;1.50;;;23.30;64.40;24.10;99696.00;;;;5088734;28;20154;-42
2022/09/14 10:02:30;;;;;;;1.70;1.60;;;23.20;64.40;24.10;99688.00;;;;5079804;28;20225;-41
2022/09/14 10:05:29;;;;;;;1.77;1.60;;;23.30;64.40;24.10;99686.00;;;;5071323;28;20172;-42
2022/09/14 10:08:04;;;;;;;1.60;1.50;;;23.30;64.50;24.10;99685.00;;;;5070181;28;20244;-41
2022/09/14 10:10:38;;;;;;;2.03;1.70;;;23.20;64.50;24.10;99693.00;;;;5070742;28;20738;-42
2022/09/14 10:13:12;;;;;;;1.67;1.57;;;23.20;64.40;24.10;99687.00;;;;5071986;28;20211;-41
2022/09/14 10:15:39;;;;;;;1.80;1.60;;;23.20;64.40;24.10;99686.00;;;;5071026;28;20309;-44
2022/09/14 10:18:11;;;;;;;1.70;1.60;;;23.20;64.40;24.10;99680.00;;;;5074796;28;20265;-41
2022/09/14 10:21:04;;;;;;;1.60;1.50;;;23.20;64.50;24.10;99682.00;;;;5083684;28;20174;-41
2022/09/14 10:23:32;;;;;;;1.80;1.70;;;23.20;64.40;24.10;99679.00;;;;5072845;28;20237;-42
2022/09/14 10:26:16;;;;;;;1.70;1.60;;;23.20;64.50;24.10;99679.00;;;;5069818;28;20170;-41
2022/09/14 10:28:44;;;;;;;1.50;1.40;;;23.20;64.60;24.10;99669.00;;;;5070159;28;20617;-43
2022/09/14 10:31:18;;;;;;;1.70;1.60;;;23.20;64.70;24.10;99670.00;;;;5069095;28;20201;-43
2022/09/14 10:33:45;;;;;;;1.87;1.70;;;23.20;64.70;24.10;99682.00;;;;4934129;28;20265;-42
2022/09/14 10:36:26;;;;;;;1.47;1.37;;;23.20;64.60;24.00;99696.00;;;;5082844;28;20234;-42
2022/09/14 10:39:16;;;;;;;1.60;1.50;;;23.20;64.50;24.10;99703.00;;;;5065233;28;20169;-42
2022/09/14 10:42:15;;;;;;;1.60;1.50;;;23.20;64.60;24.00;99634.00;;;;5069525;28;20201;-42
2022/09/14 10:44:59;;;;;;;2.00;1.73;;;23.20;65.30;24.00;99683.00;;;;5068984;28;20684;-43
2022/09/14 10:47:44;;;;;;;1.60;1.50;;;23.20;64.40;24.00;99680.00;;;;5069014;28;20582;-42
2022/09/14 10:50:27;;;;;;;1.53;1.40;;;23.10;64.50;24.00;99694.00;;;;5068600;28;20161;-43
2022/09/14 10:53:16;;;;;;;1.50;1.40;;;23.10;64.50;23.80;99677.00;;;;5068863;28;20669;-42
2022/09/14 10:56:09;;;;;;;1.50;1.20;;;23.10;64.50;24.00;99647.00;;;;5078993;28;20181;-43
2022/09/14 10:58:59;;;;;;;1.67;1.57;;;23.20;64.50;24.00;99647.00;;;;5080111;28;20196;-42
2022/09/14 11:01:56;;;;;;;1.60;1.50;;;23.10;64.50;24.00;99662.00;;;;5072729;28;20198;-40
2022/09/14 11:04:40;;;;;;;1.63;1.53;;;23.10;64.50;24.00;99677.00;;;;5081173;28;20243;-41
2022/09/14 11:07:42;;;;;;;1.60;1.50;;;23.10;64.50;24.00;99647.00;;;;5097393;28;20181;-42
2022/09/14 11:10:36;;;;;;;1.60;1.50;;;23.10;64.40;23.90;99664.00;;;;5073330;28;20187;-42
2022/09/14 11:13:31;;;;;;;1.47;1.37;;;23.10;64.50;23.90;99680.00;;;;5089662;28;20200;-43
2022/09/14 11:16:17;;;;;;;2.07;1.50;;;23.10;64.50;23.90;99681.00;;;;5088896;28;20192;-41
2022/09/14 11:19:12;;;;;;;1.20;1.20;;;23.10;64.30;23.90;99670.00;;;;5089276;28;20246;-43